sensor_id;sensor_type;location;lat;lon;timestamp;P1;durP1;ratioP1;P2;durP2;ratioP2
27533;SDS011;14973;51.460;7.008;2023-03-02T00:00:41;22.95;;;10.20;;
27533;SDS011;14973;51.460;7.008;2023-03-02T00:03:09;23.73;;;11.25;;
27533;SDS011;14973;51.460;7.008;2023-03-02T00:05:35;24.08;;;10.98;;
27533;SDS011;14973;51.460;7.008;2023-03-02T00:08:02;27.55;;;11.25;;
27533;SDS011;14973;51.460;7.008;2023-03-02T00:10:29;35.90;;;11.05;;
27533;SDS011;14973;51.460;7.008;2023-03-02T00:12:56;21.88;;;10.23;;
27533;SDS011;14973;51.460;7.008;2023-03-02T00:15:22;28.27;;;11.02;;
27533;SDS011;14973;51.460;7.008;2023-03-02T00:17:48;27.00;;;11.77;;
27533;SDS011;14973;51.460;7.008;2023-03-02T00:20:13;28.42;;;12.48;;
27533;SDS011;14973;51.460;7.008;2023-03-02T00:22:40;25.75;;;11.40;;
27533;SDS011;14973;51.460;7.008;2023-03-02T00:25:08;25.60;;;11.40;;
27533;SDS011;14973;51.460;7.008;2023-03-02T00:27:34;23.77;;;10.18;;
27533;SDS011;14973;51.460;7.008;2023-03-02T00:30:00;26.67;;;10.15;;
27533;SDS011;14973;51.460;7.008;2023-03-02T00:32:25;24.38;;;10.60;;
27533;SDS011;14973;51.460;7.008;2023-03-02T00:34:51;26.15;;;11.38;;
27533;SDS011;14973;51.460;7.008;2023-03-02T00:37:17;26.38;;;11.23;;
27533;SDS011;14973;51.460;7.008;2023-03-02T00:39:42;23.15;;;10.35;;
27533;SDS011;14973;51.460;7.008;2023-03-02T00:42:08;20.67;;;10.25;;
27533;SDS011;14973;51.460;7.008;2023-03-02T00:44:34;27.60;;;10.50;;
27533;SDS011;14973;51.460;7.008;2023-03-02T00:47:00;25.98;;;10.57;;
27533;SDS011;14973;51.460;7.008;2023-03-02T00:49:25;28.05;;;10.65;;
27533;SDS011;14973;51.460;7.008;2023-03-02T00:51:52;27.05;;;10.23;;
27533;SDS011;14973;51.460;7.008;2023-03-02T00:54:17;22.95;;;10.15;;
27533;SDS011;14973;51.460;7.008;2023-03-02T00:56:43;21.95;;;9.38;;
27533;SDS011;14973;51.460;7.008;2023-03-02T00:59:09;21.58;;;9.38;;
27533;SDS011;14973;51.460;7.008;2023-03-02T01:01:57;25.77;;;9.65;;
27533;SDS011;14973;51.460;7.008;2023-03-02T01:04:25;20.75;;;9.63;;
27533;SDS011;14973;51.460;7.008;2023-03-02T01:06:55;21.65;;;9.27;;
27533;SDS011;14973;51.460;7.008;2023-03-02T01:09:22;38.00;;;9.88;;
27533;SDS011;14973;51.460;7.008;2023-03-02T01:11:48;21.88;;;9.85;;
27533;SDS011;14973;51.460;7.008;2023-03-02T01:14:14;25.75;;;10.13;;
27533;SDS011;14973;51.460;7.008;2023-03-02T01:16:40;23.52;;;9.27;;
27533;SDS011;14973;51.460;7.008;2023-03-02T01:19:05;22.08;;;9.32;;
27533;SDS011;14973;51.460;7.008;2023-03-02T01:21:31;19.75;;;9.00;;
27533;SDS011;14973;51.460;7.008;2023-03-02T01:23:57;21.27;;;9.65;;
27533;SDS011;14973;51.460;7.008;2023-03-02T01:26:22;24.38;;;10.48;;
27533;SDS011;14973;51.460;7.008;2023-03-02T01:28:48;26.10;;;10.68;;
27533;SDS011;14973;51.460;7.008;2023-03-02T01:31:19;30.98;;;10.45;;
27533;SDS011;14973;51.460;7.008;2023-03-02T01:33:48;26.63;;;10.75;;
27533;SDS011;14973;51.460;7.008;2023-03-02T01:36:15;23.35;;;10.35;;
27533;SDS011;14973;51.460;7.008;2023-03-02T01:38:41;22.45;;;10.65;;
27533;SDS011;14973;51.460;7.008;2023-03-02T01:41:06;26.20;;;10.43;;
27533;SDS011;14973;51.460;7.008;2023-03-02T01:43:32;28.42;;;9.85;;
27533;SDS011;14973;51.460;7.008;2023-03-02T01:46:00;20.05;;;9.63;;
27533;SDS011;14973;51.460;7.008;2023-03-02T01:48:33;21.30;;;10.93;;
27533;SDS011;14973;51.460;7.008;2023-03-02T01:51:03;26.77;;;9.95;;
27533;SDS011;14973;51.460;7.008;2023-03-02T01:53:31;28.20;;;10.55;;
27533;SDS011;14973;51.460;7.008;2023-03-02T01:55:58;27.35;;;10.20;;
27533;SDS011;14973;51.460;7.008;2023-03-02T01:58:26;25.15;;;11.25;;
27533;SDS011;14973;51.460;7.008;2023-03-02T02:00:54;27.40;;;9.95;;
27533;SDS011;14973;51.460;7.008;2023-03-02T02:03:22;22.73;;;9.15;;
27533;SDS011;14973;51.460;7.008;2023-03-02T02:08:25;26.48;;;10.85;;
27533;SDS011;14973;51.460;7.008;2023-03-02T02:10:52;29.60;;;10.55;;
27533;SDS011;14973;51.460;7.008;2023-03-02T02:13:18;22.55;;;10.18;;
27533;SDS011;14973;51.460;7.008;2023-03-02T02:15:44;25.67;;;10.68;;
27533;SDS011;14973;51.460;7.008;2023-03-02T02:18:10;23.83;;;10.98;;
27533;SDS011;14973;51.460;7.008;2023-03-02T02:20:37;27.73;;;11.60;;
27533;SDS011;14973;51.460;7.008;2023-03-02T02:23:08;22.80;;;10.65;;
27533;SDS011;14973;51.460;7.008;2023-03-02T02:28:24;22.45;;;10.75;;
27533;SDS011;14973;51.460;7.008;2023-03-02T02:31:09;29.00;;;11.80;;
27533;SDS011;14973;51.460;7.008;2023-03-02T02:33:37;23.17;;;10.77;;
27533;SDS011;14973;51.460;7.008;2023-03-02T02:36:07;27.48;;;11.15;;
27533;SDS011;14973;51.460;7.008;2023-03-02T02:38:36;25.30;;;11.15;;
27533;SDS011;14973;51.460;7.008;2023-03-02T02:41:05;29.67;;;11.52;;
27533;SDS011;14973;51.460;7.008;2023-03-02T02:43:32;26.20;;;11.23;;
27533;SDS011;14973;51.460;7.008;2023-03-02T02:45:58;31.00;;;11.15;;
27533;SDS011;14973;51.460;7.008;2023-03-02T02:48:26;25.52;;;10.35;;
27533;SDS011;14973;51.460;7.008;2023-03-02T02:50:55;24.58;;;11.43;;
27533;SDS011;14973;51.460;7.008;2023-03-02T02:53:28;27.35;;;11.18;;
27533;SDS011;14973;51.460;7.008;2023-03-02T02:55:59;22.50;;;10.85;;
27533;SDS011;14973;51.460;7.008;2023-03-02T02:58:27;29.10;;;10.75;;
27533;SDS011;14973;51.460;7.008;2023-03-02T03:00:58;31.65;;;11.65;;
27533;SDS011;14973;51.460;7.008;2023-03-02T03:03:26;25.00;;;11.48;;
27533;SDS011;14973;51.460;7.008;2023-03-02T03:05:57;29.17;;;11.40;;
27533;SDS011;14973;51.460;7.008;2023-03-02T03:11:12;25.70;;;11.18;;
27533;SDS011;14973;51.460;7.008;2023-03-02T03:13:40;27.83;;;11.25;;
27533;SDS011;14973;51.460;7.008;2023-03-02T03:16:08;30.98;;;12.50;;
27533;SDS011;14973;51.460;7.008;2023-03-02T03:18:40;30.55;;;11.95;;
27533;SDS011;14973;51.460;7.008;2023-03-02T03:21:07;27.77;;;10.95;;
27533;SDS011;14973;51.460;7.008;2023-03-02T03:23:33;28.67;;;11.60;;
27533;SDS011;14973;51.460;7.008;2023-03-02T03:26:02;28.88;;;11.82;;
27533;SDS011;14973;51.460;7.008;2023-03-02T03:28:31;22.00;;;11.13;;
27533;SDS011;14973;51.460;7.008;2023-03-02T03:30:57;29.55;;;11.88;;
27533;SDS011;14973;51.460;7.008;2023-03-02T03:33:22;30.25;;;11.60;;
27533;SDS011;14973;51.460;7.008;2023-03-02T03:35:48;27.92;;;11.43;;
27533;SDS011;14973;51.460;7.008;2023-03-02T03:38:14;30.85;;;11.80;;
27533;SDS011;14973;51.460;7.008;2023-03-02T03:40:41;30.08;;;11.88;;
27533;SDS011;14973;51.460;7.008;2023-03-02T03:43:06;28.50;;;11.55;;
27533;SDS011;14973;51.460;7.008;2023-03-02T03:45:33;29.33;;;11.55;;
27533;SDS011;14973;51.460;7.008;2023-03-02T03:47:59;28.63;;;12.00;;
27533;SDS011;14973;51.460;7.008;2023-03-02T03:50:24;26.63;;;11.18;;
27533;SDS011;14973;51.460;7.008;2023-03-02T03:52:50;28.65;;;12.20;;
27533;SDS011;14973;51.460;7.008;2023-03-02T03:55:16;27.88;;;12.13;;
27533;SDS011;14973;51.460;7.008;2023-03-02T03:57:42;27.02;;;11.68;;
27533;SDS011;14973;51.460;7.008;2023-03-02T04:00:08;28.38;;;11.65;;
27533;SDS011;14973;51.460;7.008;2023-03-02T04:02:38;29.67;;;11.20;;
27533;SDS011;14973;51.460;7.008;2023-03-02T04:05:05;26.70;;;11.25;;
27533;SDS011;14973;51.460;7.008;2023-03-02T04:07:32;26.95;;;12.02;;
27533;SDS011;14973;51.460;7.008;2023-03-02T04:09:59;27.75;;;11.13;;
27533;SDS011;14973;51.460;7.008;2023-03-02T04:12:38;26.90;;;11.02;;
27533;SDS011;14973;51.460;7.008;2023-03-02T04:15:05;28.02;;;11.07;;
27533;SDS011;14973;51.460;7.008;2023-03-02T04:17:32;28.98;;;11.65;;
27533;SDS011;14973;51.460;7.008;2023-03-02T04:19:58;27.08;;;10.75;;
27533;SDS011;14973;51.460;7.008;2023-03-02T04:22:24;31.15;;;10.80;;
27533;SDS011;14973;51.460;7.008;2023-03-02T04:24:50;26.10;;;11.32;;
27533;SDS011;14973;51.460;7.008;2023-03-02T04:27:16;23.85;;;11.23;;
27533;SDS011;14973;51.460;7.008;2023-03-02T04:29:43;25.30;;;11.05;;
27533;SDS011;14973;51.460;7.008;2023-03-02T04:32:09;23.55;;;10.95;;
27533;SDS011;14973;51.460;7.008;2023-03-02T04:34:35;25.52;;;11.00;;
27533;SDS011;14973;51.460;7.008;2023-03-02T04:37:02;28.25;;;11.18;;
27533;SDS011;14973;51.460;7.008;2023-03-02T04:39:28;25.45;;;11.23;;
27533;SDS011;14973;51.460;7.008;2023-03-02T04:41:53;28.35;;;11.00;;
27533;SDS011;14973;51.460;7.008;2023-03-02T04:44:19;35.80;;;12.07;;
27533;SDS011;14973;51.460;7.008;2023-03-02T04:46:46;32.85;;;12.13;;
27533;SDS011;14973;51.460;7.008;2023-03-02T04:49:13;30.40;;;11.30;;
27533;SDS011;14973;51.460;7.008;2023-03-02T04:51:40;27.40;;;11.82;;
27533;SDS011;14973;51.460;7.008;2023-03-02T04:54:15;30.38;;;12.40;;
27533;SDS011;14973;51.460;7.008;2023-03-02T04:56:45;32.20;;;12.38;;
27533;SDS011;14973;51.460;7.008;2023-03-02T04:59:15;27.13;;;11.52;;
27533;SDS011;14973;51.460;7.008;2023-03-02T05:01:42;29.02;;;12.07;;
27533;SDS011;14973;51.460;7.008;2023-03-02T05:04:09;26.67;;;11.70;;
27533;SDS011;14973;51.460;7.008;2023-03-02T05:06:34;30.88;;;11.35;;
27533;SDS011;14973;51.460;7.008;2023-03-02T05:09:00;27.50;;;11.77;;
27533;SDS011;14973;51.460;7.008;2023-03-02T05:11:26;27.15;;;11.40;;
27533;SDS011;14973;51.460;7.008;2023-03-02T05:13:53;27.88;;;10.52;;
27533;SDS011;14973;51.460;7.008;2023-03-02T05:16:21;23.88;;;10.07;;
27533;SDS011;14973;51.460;7.008;2023-03-02T05:18:47;25.65;;;10.07;;
27533;SDS011;14973;51.460;7.008;2023-03-02T05:21:13;24.20;;;10.50;;
27533;SDS011;14973;51.460;7.008;2023-03-02T05:23:41;23.15;;;9.40;;
27533;SDS011;14973;51.460;7.008;2023-03-02T05:26:07;39.22;;;10.63;;
27533;SDS011;14973;51.460;7.008;2023-03-02T05:28:33;29.50;;;9.77;;
27533;SDS011;14973;51.460;7.008;2023-03-02T05:30:59;31.50;;;10.15;;
27533;SDS011;14973;51.460;7.008;2023-03-02T05:33:26;24.52;;;10.48;;
27533;SDS011;14973;51.460;7.008;2023-03-02T05:35:52;29.70;;;10.57;;
27533;SDS011;14973;51.460;7.008;2023-03-02T05:38:17;25.95;;;10.65;;
27533;SDS011;14973;51.460;7.008;2023-03-02T05:40:43;32.03;;;10.02;;
27533;SDS011;14973;51.460;7.008;2023-03-02T05:43:09;22.67;;;10.18;;
27533;SDS011;14973;51.460;7.008;2023-03-02T05:45:41;28.08;;;10.30;;
27533;SDS011;14973;51.460;7.008;2023-03-02T05:48:06;25.23;;;11.23;;
27533;SDS011;14973;51.460;7.008;2023-03-02T05:50:32;31.35;;;11.20;;
27533;SDS011;14973;51.460;7.008;2023-03-02T05:52:58;28.08;;;10.63;;
27533;SDS011;14973;51.460;7.008;2023-03-02T05:55:26;25.05;;;10.55;;
27533;SDS011;14973;51.460;7.008;2023-03-02T05:57:52;31.23;;;10.30;;
27533;SDS011;14973;51.460;7.008;2023-03-02T06:00:18;25.13;;;10.63;;
27533;SDS011;14973;51.460;7.008;2023-03-02T06:02:44;28.67;;;10.85;;
27533;SDS011;14973;51.460;7.008;2023-03-02T06:05:11;45.33;;;15.00;;
27533;SDS011;14973;51.460;7.008;2023-03-02T06:07:38;29.00;;;12.40;;
27533;SDS011;14973;51.460;7.008;2023-03-02T06:10:04;27.65;;;11.68;;
27533;SDS011;14973;51.460;7.008;2023-03-02T06:12:31;29.45;;;11.77;;
27533;SDS011;14973;51.460;7.008;2023-03-02T06:14:57;30.35;;;11.88;;
27533;SDS011;14973;51.460;7.008;2023-03-02T06:17:23;29.67;;;11.20;;
27533;SDS011;14973;51.460;7.008;2023-03-02T06:19:49;29.23;;;11.52;;
27533;SDS011;14973;51.460;7.008;2023-03-02T06:22:15;32.28;;;12.70;;
27533;SDS011;14973;51.460;7.008;2023-03-02T06:24:41;35.38;;;12.65;;
27533;SDS011;14973;51.460;7.008;2023-03-02T06:27:06;41.22;;;12.48;;
27533;SDS011;14973;51.460;7.008;2023-03-02T06:29:32;29.83;;;11.77;;
27533;SDS011;14973;51.460;7.008;2023-03-02T06:31:58;31.95;;;11.20;;
27533;SDS011;14973;51.460;7.008;2023-03-02T06:34:23;25.88;;;11.00;;
27533;SDS011;14973;51.460;7.008;2023-03-02T06:36:49;33.45;;;11.60;;
27533;SDS011;14973;51.460;7.008;2023-03-02T06:39:14;39.88;;;11.82;;
27533;SDS011;14973;51.460;7.008;2023-03-02T06:41:44;39.42;;;14.23;;
27533;SDS011;14973;51.460;7.008;2023-03-02T06:44:17;34.50;;;11.32;;
27533;SDS011;14973;51.460;7.008;2023-03-02T06:46:42;36.08;;;11.80;;
27533;SDS011;14973;51.460;7.008;2023-03-02T06:49:09;26.17;;;10.88;;
27533;SDS011;14973;51.460;7.008;2023-03-02T06:51:35;36.92;;;13.52;;
27533;SDS011;14973;51.460;7.008;2023-03-02T06:54:01;33.28;;;11.70;;
27533;SDS011;14973;51.460;7.008;2023-03-02T06:56:27;27.85;;;11.65;;
27533;SDS011;14973;51.460;7.008;2023-03-02T06:58:53;31.27;;;11.05;;
27533;SDS011;14973;51.460;7.008;2023-03-02T07:01:18;32.47;;;10.77;;
27533;SDS011;14973;51.460;7.008;2023-03-02T07:03:44;31.35;;;10.70;;
27533;SDS011;14973;51.460;7.008;2023-03-02T07:06:11;26.70;;;10.82;;
27533;SDS011;14973;51.460;7.008;2023-03-02T07:08:37;26.65;;;10.45;;
27533;SDS011;14973;51.460;7.008;2023-03-02T07:11:04;27.38;;;10.30;;
27533;SDS011;14973;51.460;7.008;2023-03-02T07:13:31;28.92;;;9.95;;
27533;SDS011;14973;51.460;7.008;2023-03-02T07:15:56;23.13;;;9.73;;
27533;SDS011;14973;51.460;7.008;2023-03-02T07:18:22;24.33;;;10.48;;
27533;SDS011;14973;51.460;7.008;2023-03-02T07:20:47;30.67;;;11.65;;
27533;SDS011;14973;51.460;7.008;2023-03-02T07:23:13;27.73;;;10.57;;
27533;SDS011;14973;51.460;7.008;2023-03-02T07:25:38;27.27;;;10.80;;
27533;SDS011;14973;51.460;7.008;2023-03-02T07:28:04;28.65;;;10.85;;
27533;SDS011;14973;51.460;7.008;2023-03-02T07:30:30;30.40;;;10.88;;
27533;SDS011;14973;51.460;7.008;2023-03-02T07:32:55;23.90;;;9.93;;
27533;SDS011;14973;51.460;7.008;2023-03-02T07:35:21;37.63;;;12.88;;
27533;SDS011;14973;51.460;7.008;2023-03-02T07:37:47;35.50;;;11.82;;
27533;SDS011;14973;51.460;7.008;2023-03-02T07:40:13;31.63;;;11.57;;
27533;SDS011;14973;51.460;7.008;2023-03-02T07:42:38;31.40;;;10.95;;
27533;SDS011;14973;51.460;7.008;2023-03-02T07:45:04;28.45;;;10.98;;
27533;SDS011;14973;51.460;7.008;2023-03-02T07:47:31;25.30;;;9.88;;
27533;SDS011;14973;51.460;7.008;2023-03-02T07:49:57;26.42;;;11.77;;
27533;SDS011;14973;51.460;7.008;2023-03-02T07:52:22;32.25;;;12.57;;
27533;SDS011;14973;51.460;7.008;2023-03-02T07:54:48;22.63;;;10.65;;
27533;SDS011;14973;51.460;7.008;2023-03-02T07:57:14;27.05;;;10.80;;
27533;SDS011;14973;51.460;7.008;2023-03-02T07:59:42;26.20;;;10.20;;
27533;SDS011;14973;51.460;7.008;2023-03-02T08:02:08;26.27;;;10.68;;
27533;SDS011;14973;51.460;7.008;2023-03-02T08:04:37;28.25;;;10.93;;
27533;SDS011;14973;51.460;7.008;2023-03-02T08:07:03;26.30;;;11.10;;
27533;SDS011;14973;51.460;7.008;2023-03-02T08:09:29;28.05;;;10.32;;
27533;SDS011;14973;51.460;7.008;2023-03-02T08:11:54;26.27;;;10.23;;
27533;SDS011;14973;51.460;7.008;2023-03-02T08:14:20;25.30;;;10.82;;
27533;SDS011;14973;51.460;7.008;2023-03-02T08:16:46;29.85;;;10.50;;
27533;SDS011;14973;51.460;7.008;2023-03-02T08:19:11;22.98;;;10.15;;
27533;SDS011;14973;51.460;7.008;2023-03-02T08:21:37;26.88;;;9.38;;
27533;SDS011;14973;51.460;7.008;2023-03-02T08:24:03;22.33;;;10.10;;
27533;SDS011;14973;51.460;7.008;2023-03-02T08:26:29;24.88;;;9.88;;
27533;SDS011;14973;51.460;7.008;2023-03-02T08:28:55;24.15;;;9.40;;
27533;SDS011;14973;51.460;7.008;2023-03-02T08:31:21;19.13;;;9.20;;
27533;SDS011;14973;51.460;7.008;2023-03-02T08:33:46;23.15;;;9.65;;
27533;SDS011;14973;51.460;7.008;2023-03-02T08:36:13;19.67;;;9.43;;
27533;SDS011;14973;51.460;7.008;2023-03-02T08:38:41;20.52;;;9.95;;
27533;SDS011;14973;51.460;7.008;2023-03-02T08:41:09;23.38;;;9.02;;
27533;SDS011;14973;51.460;7.008;2023-03-02T08:43:36;28.98;;;10.15;;
27533;SDS011;14973;51.460;7.008;2023-03-02T08:46:02;23.40;;;9.48;;
27533;SDS011;14973;51.460;7.008;2023-03-02T08:48:29;18.42;;;9.32;;
27533;SDS011;14973;51.460;7.008;2023-03-02T08:50:56;17.65;;;9.02;;
27533;SDS011;14973;51.460;7.008;2023-03-02T08:53:23;16.77;;;9.10;;
27533;SDS011;14973;51.460;7.008;2023-03-02T08:55:49;16.75;;;8.40;;
27533;SDS011;14973;51.460;7.008;2023-03-02T08:58:15;16.42;;;8.13;;
27533;SDS011;14973;51.460;7.008;2023-03-02T09:00:40;17.58;;;8.98;;
27533;SDS011;14973;51.460;7.008;2023-03-02T09:03:06;14.73;;;8.77;;
27533;SDS011;14973;51.460;7.008;2023-03-02T09:05:31;18.02;;;8.90;;
27533;SDS011;14973;51.460;7.008;2023-03-02T09:07:57;21.65;;;9.68;;
27533;SDS011;14973;51.460;7.008;2023-03-02T09:10:23;16.95;;;8.25;;
27533;SDS011;14973;51.460;7.008;2023-03-02T09:12:49;20.90;;;8.60;;
27533;SDS011;14973;51.460;7.008;2023-03-02T09:15:14;22.08;;;9.45;;
27533;SDS011;14973;51.460;7.008;2023-03-02T09:17:40;17.63;;;9.70;;
27533;SDS011;14973;51.460;7.008;2023-03-02T09:20:06;16.98;;;9.20;;
27533;SDS011;14973;51.460;7.008;2023-03-02T09:22:33;16.30;;;8.80;;
27533;SDS011;14973;51.460;7.008;2023-03-02T09:25:00;17.73;;;8.85;;
27533;SDS011;14973;51.460;7.008;2023-03-02T09:27:26;16.33;;;8.50;;
27533;SDS011;14973;51.460;7.008;2023-03-02T09:29:52;22.23;;;10.25;;
27533;SDS011;14973;51.460;7.008;2023-03-02T09:32:18;18.60;;;9.15;;
27533;SDS011;14973;51.460;7.008;2023-03-02T09:34:43;21.30;;;9.43;;
27533;SDS011;14973;51.460;7.008;2023-03-02T09:37:09;26.95;;;9.48;;
27533;SDS011;14973;51.460;7.008;2023-03-02T09:39:35;18.63;;;8.30;;
27533;SDS011;14973;51.460;7.008;2023-03-02T09:45:14;18.13;;;8.75;;
27533;SDS011;14973;51.460;7.008;2023-03-02T09:53:46;18.58;;;8.93;;
27533;SDS011;14973;51.460;7.008;2023-03-02T09:56:22;20.67;;;8.55;;
27533;SDS011;14973;51.460;7.008;2023-03-02T09:58:51;18.00;;;8.85;;
27533;SDS011;14973;51.460;7.008;2023-03-02T10:01:40;28.90;;;8.20;;
27533;SDS011;14973;51.460;7.008;2023-03-02T10:04:17;26.23;;;9.65;;
27533;SDS011;14973;51.460;7.008;2023-03-02T10:07:04;17.95;;;8.20;;
27533;SDS011;14973;51.460;7.008;2023-03-02T10:09:40;37.65;;;9.38;;
27533;SDS011;14973;51.460;7.008;2023-03-02T10:15:03;18.60;;;8.43;;
27533;SDS011;14973;51.460;7.008;2023-03-02T10:20:40;19.65;;;8.88;;
27533;SDS011;14973;51.460;7.008;2023-03-02T10:23:26;24.70;;;11.25;;
27533;SDS011;14973;51.460;7.008;2023-03-02T10:26:14;17.20;;;8.50;;
27533;SDS011;14973;51.460;7.008;2023-03-02T10:32:18;21.58;;;9.57;;
27533;SDS011;14973;51.460;7.008;2023-03-02T10:34:49;22.13;;;9.23;;
27533;SDS011;14973;51.460;7.008;2023-03-02T10:37:23;23.98;;;9.55;;
27533;SDS011;14973;51.460;7.008;2023-03-02T10:39:52;19.13;;;8.38;;
27533;SDS011;14973;51.460;7.008;2023-03-02T10:44:56;18.58;;;9.00;;
27533;SDS011;14973;51.460;7.008;2023-03-02T10:47:30;18.73;;;9.18;;
27533;SDS011;14973;51.460;7.008;2023-03-02T10:49:56;26.48;;;8.68;;
27533;SDS011;14973;51.460;7.008;2023-03-02T10:52:23;19.67;;;9.07;;
27533;SDS011;14973;51.460;7.008;2023-03-02T10:55:08;18.23;;;9.05;;
27533;SDS011;14973;51.460;7.008;2023-03-02T10:57:39;17.35;;;8.80;;
27533;SDS011;14973;51.460;7.008;2023-03-02T11:00:16;20.35;;;8.75;;
27533;SDS011;14973;51.460;7.008;2023-03-02T11:02:51;17.60;;;8.90;;
27533;SDS011;14973;51.460;7.008;2023-03-02T11:08:02;16.15;;;8.38;;
27533;SDS011;14973;51.460;7.008;2023-03-02T11:11:16;22.40;;;8.73;;
27533;SDS011;14973;51.460;7.008;2023-03-02T11:13:23;20.50;;;9.05;;
27533;SDS011;14973;51.460;7.008;2023-03-02T11:15:55;17.70;;;8.43;;
27533;SDS011;14973;51.460;7.008;2023-03-02T11:24:07;17.85;;;9.35;;
27533;SDS011;14973;51.460;7.008;2023-03-02T11:26:42;19.67;;;8.52;;
27533;SDS011;14973;51.460;7.008;2023-03-02T11:32:01;25.08;;;9.35;;
27533;SDS011;14973;51.460;7.008;2023-03-02T11:37:17;17.27;;;7.97;;
27533;SDS011;14973;51.460;7.008;2023-03-02T11:39:55;19.02;;;9.88;;
27533;SDS011;14973;51.460;7.008;2023-03-02T11:42:38;23.60;;;9.15;;
27533;SDS011;14973;51.460;7.008;2023-03-02T11:47:37;21.65;;;8.45;;
27533;SDS011;14973;51.460;7.008;2023-03-02T11:50:03;18.27;;;8.40;;
27533;SDS011;14973;51.460;7.008;2023-03-02T11:52:32;16.40;;;8.38;;
27533;SDS011;14973;51.460;7.008;2023-03-02T11:57:37;19.23;;;8.52;;
27533;SDS011;14973;51.460;7.008;2023-03-02T12:00:34;16.25;;;7.68;;
27533;SDS011;14973;51.460;7.008;2023-03-02T12:05:41;18.47;;;8.50;;
27533;SDS011;14973;51.460;7.008;2023-03-02T12:13:41;14.55;;;7.85;;
27533;SDS011;14973;51.460;7.008;2023-03-02T12:16:23;18.27;;;8.93;;
27533;SDS011;14973;51.460;7.008;2023-03-02T12:24:24;18.95;;;7.70;;
27533;SDS011;14973;51.460;7.008;2023-03-02T12:29:37;17.10;;;7.63;;
27533;SDS011;14973;51.460;7.008;2023-03-02T12:32:12;15.90;;;8.30;;
27533;SDS011;14973;51.460;7.008;2023-03-02T12:35:21;18.65;;;8.00;;
27533;SDS011;14973;51.460;7.008;2023-03-02T12:38:42;21.58;;;8.65;;
27533;SDS011;14973;51.460;7.008;2023-03-02T12:43:27;15.30;;;6.65;;
27533;SDS011;14973;51.460;7.008;2023-03-02T12:54:21;13.70;;;5.80;;
27533;SDS011;14973;51.460;7.008;2023-03-02T12:56:49;14.63;;;6.28;;
27533;SDS011;14973;51.460;7.008;2023-03-02T12:59:26;11.27;;;6.18;;
27533;SDS011;14973;51.460;7.008;2023-03-02T13:05:02;10.70;;;6.20;;
27533;SDS011;14973;51.460;7.008;2023-03-02T13:07:36;11.82;;;5.93;;
27533;SDS011;14973;51.460;7.008;2023-03-02T13:12:56;15.55;;;7.47;;
27533;SDS011;14973;51.460;7.008;2023-03-02T13:15:22;12.18;;;5.93;;
27533;SDS011;14973;51.460;7.008;2023-03-02T13:17:52;12.88;;;5.85;;
27533;SDS011;14973;51.460;7.008;2023-03-02T13:20:20;10.32;;;5.80;;
27533;SDS011;14973;51.460;7.008;2023-03-02T13:22:48;17.48;;;6.03;;
27533;SDS011;14973;51.460;7.008;2023-03-02T13:25:20;11.60;;;5.82;;
27533;SDS011;14973;51.460;7.008;2023-03-02T13:27:55;14.23;;;6.63;;
27533;SDS011;14973;51.460;7.008;2023-03-02T13:30:29;12.55;;;5.72;;
27533;SDS011;14973;51.460;7.008;2023-03-02T13:33:04;13.13;;;6.15;;
27533;SDS011;14973;51.460;7.008;2023-03-02T13:35:43;11.95;;;6.15;;
27533;SDS011;14973;51.460;7.008;2023-03-02T13:38:21;13.75;;;6.35;;
27533;SDS011;14973;51.460;7.008;2023-03-02T13:40:50;19.50;;;6.78;;
27533;SDS011;14973;51.460;7.008;2023-03-02T13:43:21;21.40;;;7.50;;
27533;SDS011;14973;51.460;7.008;2023-03-02T13:45:54;15.13;;;6.97;;
27533;SDS011;14973;51.460;7.008;2023-03-02T13:48:21;20.45;;;7.57;;
27533;SDS011;14973;51.460;7.008;2023-03-02T13:50:55;21.38;;;8.50;;
27533;SDS011;14973;51.460;7.008;2023-03-02T13:53:26;15.63;;;7.60;;
27533;SDS011;14973;51.460;7.008;2023-03-02T13:55:54;18.75;;;8.95;;
27533;SDS011;14973;51.460;7.008;2023-03-02T13:58:21;13.90;;;7.10;;
27533;SDS011;14973;51.460;7.008;2023-03-02T14:00:49;15.20;;;6.80;;
27533;SDS011;14973;51.460;7.008;2023-03-02T14:03:23;16.33;;;6.78;;
27533;SDS011;14973;51.460;7.008;2023-03-02T14:05:52;16.52;;;7.82;;
27533;SDS011;14973;51.460;7.008;2023-03-02T14:08:18;17.02;;;8.45;;
27533;SDS011;14973;51.460;7.008;2023-03-02T14:10:44;13.10;;;6.78;;
27533;SDS011;14973;51.460;7.008;2023-03-02T14:13:15;16.88;;;7.05;;
27533;SDS011;14973;51.460;7.008;2023-03-02T14:15:48;16.80;;;7.93;;
27533;SDS011;14973;51.460;7.008;2023-03-02T14:21:03;18.08;;;8.68;;
27533;SDS011;14973;51.460;7.008;2023-03-02T14:23:30;14.48;;;8.10;;
27533;SDS011;14973;51.460;7.008;2023-03-02T14:25:56;18.48;;;8.15;;
27533;SDS011;14973;51.460;7.008;2023-03-02T14:28:27;14.85;;;7.68;;
27533;SDS011;14973;51.460;7.008;2023-03-02T14:30:56;22.27;;;9.45;;
27533;SDS011;14973;51.460;7.008;2023-03-02T14:33:22;17.98;;;8.73;;
27533;SDS011;14973;51.460;7.008;2023-03-02T14:35:50;17.38;;;8.48;;
27533;SDS011;14973;51.460;7.008;2023-03-02T14:38:22;18.45;;;9.25;;
27533;SDS011;14973;51.460;7.008;2023-03-02T14:40:50;22.33;;;9.43;;
27533;SDS011;14973;51.460;7.008;2023-03-02T14:43:16;21.35;;;9.43;;
27533;SDS011;14973;51.460;7.008;2023-03-02T14:45:43;20.30;;;9.13;;
27533;SDS011;14973;51.460;7.008;2023-03-02T14:48:09;26.35;;;9.40;;
27533;SDS011;14973;51.460;7.008;2023-03-02T14:50:36;19.00;;;9.02;;
27533;SDS011;14973;51.460;7.008;2023-03-02T14:53:05;18.23;;;9.90;;
27533;SDS011;14973;51.460;7.008;2023-03-02T14:55:36;18.20;;;9.40;;
27533;SDS011;14973;51.460;7.008;2023-03-02T14:58:05;21.88;;;9.70;;
27533;SDS011;14973;51.460;7.008;2023-03-02T15:00:44;22.90;;;10.45;;
27533;SDS011;14973;51.460;7.008;2023-03-02T15:03:13;25.20;;;9.77;;
27533;SDS011;14973;51.460;7.008;2023-03-02T15:05:41;19.88;;;9.50;;
27533;SDS011;14973;51.460;7.008;2023-03-02T15:08:09;21.88;;;9.30;;
27533;SDS011;14973;51.460;7.008;2023-03-02T15:10:37;20.88;;;9.65;;
27533;SDS011;14973;51.460;7.008;2023-03-02T15:13:06;21.63;;;8.57;;
27533;SDS011;14973;51.460;7.008;2023-03-02T15:15:35;18.42;;;8.63;;
27533;SDS011;14973;51.460;7.008;2023-03-02T15:18:02;28.23;;;10.45;;
27533;SDS011;14973;51.460;7.008;2023-03-02T15:20:28;19.25;;;10.00;;
27533;SDS011;14973;51.460;7.008;2023-03-02T15:22:54;19.65;;;9.13;;
27533;SDS011;14973;51.460;7.008;2023-03-02T15:25:20;19.35;;;9.77;;
27533;SDS011;14973;51.460;7.008;2023-03-02T15:27:48;25.35;;;9.93;;
27533;SDS011;14973;51.460;7.008;2023-03-02T15:30:14;22.83;;;10.55;;
27533;SDS011;14973;51.460;7.008;2023-03-02T15:32:40;23.33;;;10.30;;
27533;SDS011;14973;51.460;7.008;2023-03-02T15:35:05;18.88;;;9.57;;
27533;SDS011;14973;51.460;7.008;2023-03-02T15:37:32;17.77;;;9.45;;
27533;SDS011;14973;51.460;7.008;2023-03-02T15:39:57;24.98;;;9.77;;
27533;SDS011;14973;51.460;7.008;2023-03-02T15:42:23;21.63;;;10.13;;
27533;SDS011;14973;51.460;7.008;2023-03-02T15:44:49;23.70;;;10.48;;
27533;SDS011;14973;51.460;7.008;2023-03-02T15:47:14;25.48;;;11.80;;
27533;SDS011;14973;51.460;7.008;2023-03-02T15:49:40;24.08;;;12.20;;
27533;SDS011;14973;51.460;7.008;2023-03-02T15:52:06;24.73;;;12.15;;
27533;SDS011;14973;51.460;7.008;2023-03-02T15:54:32;34.67;;;13.90;;
27533;SDS011;14973;51.460;7.008;2023-03-02T15:56:57;26.73;;;12.32;;
27533;SDS011;14973;51.460;7.008;2023-03-02T15:59:24;27.10;;;12.88;;